createdAt,value
2023-04-30T00:00:49.285Z,44.42
2023-04-30T00:03:39.366Z,44.68
2023-04-30T00:06:28.557Z,44.66
2023-04-30T00:09:17.449Z,44.64
2023-04-30T00:12:06.460Z,44.76
2023-04-30T00:14:56.281Z,44.72
2023-04-30T00:17:44.898Z,44.73
2023-04-30T00:20:35.715Z,44.48
2023-04-30T00:23:24.471Z,44.65
2023-04-30T00:26:13.036Z,45.00
2023-04-30T00:29:01.759Z,44.38
2023-04-30T00:31:50.631Z,44.62
2023-04-30T00:34:39.237Z,44.62
2023-04-30T00:37:29.214Z,44.35
2023-04-30T00:40:18.107Z,44.55
2023-04-30T00:43:06.660Z,44.72
2023-04-30T00:45:55.487Z,44.67
2023-04-30T00:48:44.178Z,44.51
2023-04-30T00:51:33.869Z,44.82
2023-04-30T00:54:24.949Z,44.54
2023-04-30T00:57:14.774Z,44.48
2023-04-30T01:00:03.895Z,44.39
2023-04-30T01:02:52.558Z,44.34
2023-04-30T01:05:41.232Z,44.56
2023-04-30T01:08:30.334Z,44.42
2023-04-30T01:11:30.218Z,44.44
2023-04-30T01:14:27.195Z,44.24
2023-04-30T01:17:23.548Z,44.49
2023-04-30T01:20:13.313Z,44.36
2023-04-30T01:23:13.452Z,44.45
2023-04-30T01:26:15.025Z,44.72
2023-04-30T01:29:07.016Z,44.57
2023-04-30T01:31:55.645Z,44.83
2023-04-30T01:34:44.338Z,44.83
2023-04-30T01:37:41.190Z,45.09
2023-04-30T01:40:38.741Z,44.60
2023-04-30T01:43:40.314Z,44.92
2023-04-30T01:46:31.772Z,44.69
2023-04-30T01:49:28.659Z,44.80
2023-04-30T01:52:22.278Z,44.91
2023-04-30T01:55:15.798Z,44.73
2023-04-30T01:58:07.100Z,44.69
2023-04-30T02:00:55.900Z,44.89
2023-04-30T02:03:45.847Z,44.84
2023-04-30T02:06:34.797Z,44.52
2023-04-30T02:09:24.160Z,44.55
2023-04-30T02:12:12.802Z,44.56
2023-04-30T02:15:01.581Z,44.84
2023-04-30T02:17:50.261Z,44.89
2023-04-30T02:20:40.284Z,44.64
2023-04-30T02:23:29.110Z,44.89
2023-04-30T02:26:17.776Z,44.98
2023-04-30T02:29:06.393Z,45.10
2023-04-30T02:31:55.032Z,44.84
2023-04-30T02:34:44.181Z,44.80
2023-04-30T02:37:34.119Z,44.91
2023-04-30T02:40:22.729Z,45.15
2023-04-30T02:43:11.347Z,45.11
2023-04-30T02:45:59.964Z,44.99
2023-04-30T02:48:48.568Z,44.67
2023-04-30T02:51:37.148Z,45.00
2023-04-30T02:54:27.366Z,44.87
2023-04-30T02:57:16.015Z,44.65
2023-04-30T03:00:05.287Z,44.68
2023-04-30T03:02:54.016Z,44.87
2023-04-30T03:05:42.650Z,44.86
2023-04-30T03:08:31.228Z,44.56
2023-04-30T03:11:21.428Z,44.71
2023-04-30T03:14:10.039Z,44.79
2023-04-30T03:16:58.673Z,44.85
2023-04-30T03:19:47.301Z,44.68
2023-04-30T03:22:35.956Z,44.61
2023-04-30T03:25:24.664Z,44.63
2023-04-30T03:28:15.139Z,44.59
2023-04-30T03:31:05.439Z,44.65
2023-04-30T03:33:54.248Z,44.73
2023-04-30T03:36:42.895Z,44.92
2023-04-30T03:39:31.470Z,44.75
2023-04-30T03:42:20.006Z,44.57
2023-04-30T03:45:10.918Z,44.83
2023-04-30T03:47:59.660Z,44.80
2023-04-30T03:50:48.299Z,44.69
2023-04-30T03:53:36.909Z,44.75
2023-04-30T03:56:26.187Z,44.39
2023-04-30T03:59:14.952Z,44.48
2023-04-30T04:02:04.932Z,44.59
2023-04-30T04:04:54.018Z,44.74
2023-04-30T04:07:42.619Z,44.48
2023-04-30T04:10:31.394Z,44.74
2023-04-30T04:13:20.077Z,44.85
2023-04-30T04:16:09.811Z,44.57
2023-04-30T04:18:59.782Z,44.93
2023-04-30T04:21:48.685Z,44.72
2023-04-30T04:24:38.321Z,44.54
2023-04-30T04:27:27.002Z,44.75
2023-04-30T04:30:15.647Z,44.72
2023-04-30T04:33:04.342Z,44.79
2023-04-30T04:35:54.536Z,44.84
2023-04-30T04:38:43.747Z,44.70
2023-04-30T04:41:33.283Z,44.70
2023-04-30T04:44:22.464Z,44.79
2023-04-30T04:47:12.880Z,44.90
2023-04-30T04:50:01.687Z,44.74
2023-04-30T04:52:51.660Z,44.76
2023-04-30T04:55:40.547Z,44.25
2023-04-30T04:58:29.652Z,44.37
2023-04-30T05:01:18.484Z,44.69
2023-04-30T05:04:07.758Z,44.68
2023-04-30T05:06:56.985Z,44.58
2023-04-30T05:09:47.669Z,44.69
2023-04-30T05:12:36.254Z,44.61
2023-04-30T05:15:24.995Z,44.68
2023-04-30T05:18:13.683Z,44.85
2023-04-30T05:21:02.271Z,44.91
2023-04-30T05:23:50.922Z,44.87
2023-04-30T05:26:40.974Z,44.93
2023-04-30T05:29:29.638Z,44.91
2023-04-30T05:32:18.231Z,44.79
2023-04-30T05:35:07.845Z,44.65
2023-04-30T05:37:57.207Z,44.90
2023-04-30T05:40:46.063Z,44.44
2023-04-30T05:43:35.998Z,44.76
2023-04-30T05:46:24.748Z,44.75
2023-04-30T05:49:13.689Z,45.18
2023-04-30T05:52:03.595Z,45.19
2023-04-30T05:54:52.295Z,44.84
2023-04-30T05:57:40.978Z,44.73
2023-04-30T06:00:31.192Z,44.79
2023-04-30T06:03:20.262Z,44.96
2023-04-30T06:06:09.260Z,45.32
2023-04-30T06:08:58.037Z,45.33
2023-04-30T06:11:50.318Z,44.86
2023-04-30T06:14:39.655Z,44.78
2023-04-30T06:17:29.740Z,44.80
2023-04-30T06:20:18.847Z,44.86
2023-04-30T06:23:07.682Z,44.57
2023-04-30T06:25:56.272Z,44.61
2023-04-30T06:28:44.884Z,44.83
2023-04-30T06:31:33.599Z,44.70
2023-04-30T06:34:23.747Z,45.01
2023-04-30T06:37:12.553Z,45.10
2023-04-30T06:40:01.205Z,45.16
2023-04-30T06:42:49.876Z,44.87
2023-04-30T06:45:38.650Z,44.93
2023-04-30T06:48:27.260Z,44.90
2023-04-30T06:51:17.216Z,44.82
2023-04-30T06:54:06.312Z,44.98
2023-04-30T06:56:54.980Z,44.72
2023-04-30T06:59:44.204Z,44.83
2023-04-30T07:02:32.927Z,45.00
2023-04-30T07:05:21.686Z,45.52
2023-04-30T07:08:11.748Z,44.86
2023-04-30T07:11:06.479Z,40.18
2023-04-30T07:13:55.077Z,36.67
2023-04-30T07:16:43.817Z,35.61
2023-04-30T07:19:32.525Z,34.58
2023-04-30T07:22:21.132Z,34.04
2023-04-30T07:25:12.237Z,33.48
2023-04-30T07:28:01.123Z,34.85
2023-04-30T07:30:49.743Z,36.75
2023-04-30T07:33:38.365Z,37.16
2023-04-30T07:36:27.477Z,37.54
2023-04-30T07:39:16.068Z,37.75
2023-04-30T07:42:06.375Z,37.64
2023-04-30T07:44:55.022Z,37.71
2023-04-30T07:47:43.647Z,37.79
2023-04-30T07:50:34.510Z,37.74
2023-04-30T07:53:23.103Z,38.00
2023-04-30T07:56:11.670Z,38.17
2023-04-30T07:59:01.666Z,37.72
2023-04-30T08:01:50.342Z,38.41
2023-04-30T08:04:39.046Z,38.03
2023-04-30T08:07:27.613Z,38.37
2023-04-30T08:10:16.381Z,38.74
2023-04-30T08:13:06.310Z,38.78
2023-04-30T08:15:56.311Z,38.34
2023-04-30T08:18:46.276Z,38.32
2023-04-30T08:21:34.890Z,38.48
2023-04-30T08:24:23.858Z,38.23
2023-04-30T08:27:13.635Z,38.38
2023-04-30T08:30:02.280Z,38.24
2023-04-30T08:32:52.737Z,38.30
2023-04-30T08:35:42.204Z,39.00
2023-04-30T08:38:30.857Z,39.40
2023-04-30T08:41:21.359Z,39.91
2023-04-30T08:44:13.185Z,39.56
2023-04-30T08:47:03.693Z,39.26
2023-04-30T08:49:53.926Z,39.55
2023-04-30T08:52:45.595Z,39.38
2023-04-30T08:55:35.865Z,39.58
2023-04-30T08:58:25.641Z,39.84
2023-04-30T09:01:15.590Z,39.78
2023-04-30T09:04:05.802Z,39.48
2023-04-30T09:06:59.297Z,38.17
2023-04-30T09:09:49.514Z,38.98
2023-04-30T09:12:40.025Z,39.74
2023-04-30T09:15:30.909Z,39.46
2023-04-30T09:18:22.153Z,39.88
2023-04-30T09:21:11.758Z,39.26
2023-04-30T09:24:04.047Z,38.19
2023-04-30T09:26:53.626Z,38.76
2023-04-30T09:29:42.468Z,38.98
2023-04-30T09:32:31.166Z,39.65
2023-04-30T09:35:31.578Z,39.25
2023-04-30T09:38:30.732Z,40.07
2023-04-30T09:41:29.761Z,39.96
2023-04-30T09:44:30.999Z,39.44
2023-04-30T09:47:21.609Z,39.37
2023-04-30T09:50:15.236Z,39.73
2023-04-30T09:53:08.819Z,40.11
2023-04-30T09:56:00.248Z,40.39
2023-04-30T09:58:53.360Z,40.21
2023-04-30T10:01:42.371Z,35.59
2023-04-30T10:04:33.413Z,34.16
2023-04-30T10:07:23.935Z,33.13
2023-04-30T10:10:13.193Z,32.78
2023-04-30T10:13:07.659Z,33.05
2023-04-30T10:16:01.281Z,31.05
2023-04-30T10:18:52.174Z,29.87
2023-04-30T10:21:44.045Z,29.60
2023-04-30T10:24:33.098Z,29.84
2023-04-30T10:27:21.830Z,29.40
2023-04-30T10:30:12.565Z,29.38
2023-04-30T10:33:13.081Z,29.49
2023-04-30T10:36:09.164Z,29.64
2023-04-30T10:38:59.418Z,29.56
2023-04-30T10:41:49.096Z,29.69
2023-04-30T10:44:39.263Z,31.14
2023-04-30T10:47:30.831Z,32.43
2023-04-30T10:50:25.745Z,33.05
2023-04-30T10:53:16.866Z,33.60
2023-04-30T10:56:09.127Z,34.37
2023-04-30T10:59:01.220Z,34.71
2023-04-30T11:02:00.785Z,34.34
2023-04-30T11:05:12.661Z,34.93
2023-04-30T11:08:03.026Z,34.94
2023-04-30T11:11:00.671Z,35.10
2023-04-30T11:13:59.547Z,35.27
2023-04-30T11:16:51.939Z,35.06
2023-04-30T11:19:50.525Z,35.70
2023-04-30T11:22:40.579Z,35.89
2023-04-30T11:25:41.386Z,36.04
2023-04-30T11:28:35.866Z,35.87
2023-04-30T11:31:24.692Z,35.82
2023-04-30T11:34:13.870Z,36.05
2023-04-30T11:37:04.709Z,36.30
2023-04-30T11:39:54.147Z,35.99
2023-04-30T11:42:46.721Z,36.22
2023-04-30T11:45:35.790Z,35.92
2023-04-30T11:48:24.454Z,36.35
2023-04-30T11:51:17.139Z,37.12
2023-04-30T11:54:10.003Z,36.93
2023-04-30T11:57:03.916Z,36.59
2023-04-30T11:59:54.179Z,35.99
2023-04-30T12:02:45.810Z,35.81
2023-04-30T12:05:34.638Z,35.59
2023-04-30T12:08:23.527Z,35.24
2023-04-30T12:11:25.448Z,35.66
2023-04-30T12:14:15.533Z,36.14
2023-04-30T12:17:05.765Z,36.46
2023-04-30T12:19:55.295Z,36.52
2023-04-30T12:22:46.160Z,36.55
2023-04-30T12:25:44.375Z,35.89
2023-04-30T12:28:36.647Z,35.90
2023-04-30T12:31:26.389Z,36.43
2023-04-30T12:34:18.566Z,35.91
2023-04-30T12:37:07.936Z,36.34
2023-04-30T12:39:57.906Z,36.38
2023-04-30T12:42:48.187Z,36.33
2023-04-30T12:45:51.702Z,36.82
2023-04-30T12:48:46.314Z,35.74
2023-04-30T12:51:40.273Z,35.43
2023-04-30T12:54:30.291Z,35.27
2023-04-30T12:57:19.051Z,35.40
2023-04-30T13:00:09.982Z,35.16
2023-04-30T13:02:59.342Z,35.13
2023-04-30T13:05:52.748Z,34.78
2023-04-30T13:08:56.984Z,34.31
2023-04-30T13:11:47.261Z,34.59
2023-04-30T13:14:36.645Z,34.53
2023-04-30T13:17:26.422Z,34.48
2023-04-30T13:20:17.135Z,34.36
2023-04-30T13:23:06.277Z,34.05
2023-04-30T13:25:56.334Z,34.31
2023-04-30T13:28:45.170Z,34.43
2023-04-30T13:31:33.918Z,34.67
2023-04-30T13:34:22.802Z,35.14
2023-04-30T13:37:12.115Z,35.11
2023-04-30T13:40:01.449Z,34.87
2023-04-30T13:42:51.427Z,34.40
2023-04-30T13:45:40.081Z,34.87
2023-04-30T13:48:28.719Z,35.00
2023-04-30T13:51:17.306Z,35.04
2023-04-30T13:54:06.148Z,33.99
2023-04-30T13:56:55.493Z,34.23
2023-04-30T13:59:45.638Z,33.60
2023-04-30T14:02:34.300Z,33.39
2023-04-30T14:05:22.969Z,33.95
2023-04-30T14:08:12.727Z,33.62
2023-04-30T14:11:01.646Z,33.69
2023-04-30T14:13:50.323Z,33.94
2023-04-30T14:16:40.589Z,34.38
2023-04-30T14:19:29.215Z,34.76
2023-04-30T14:22:17.912Z,34.07
2023-04-30T14:25:07.470Z,34.15
2023-04-30T14:27:56.227Z,33.88
2023-04-30T14:30:46.135Z,33.90
2023-04-30T14:33:36.183Z,33.71
2023-04-30T14:36:25.048Z,33.82
2023-04-30T14:39:14.161Z,33.76
2023-04-30T14:42:03.382Z,34.04
2023-04-30T14:44:53.131Z,30.69
2023-04-30T14:47:42.334Z,27.50
2023-04-30T14:50:32.467Z,26.76
2023-04-30T14:53:21.202Z,26.48
2023-04-30T14:56:10.414Z,25.63
2023-04-30T14:58:59.110Z,25.07
2023-04-30T15:01:58.863Z,23.75
2023-04-30T15:04:47.619Z,23.83
2023-04-30T15:07:37.775Z,23.48
2023-04-30T15:10:26.517Z,23.00
2023-04-30T15:13:15.192Z,22.67
2023-04-30T15:16:04.012Z,23.03
2023-04-30T15:18:52.810Z,24.50
2023-04-30T15:21:41.436Z,24.42
2023-04-30T15:24:31.536Z,24.33
2023-04-30T15:27:20.187Z,24.61
2023-04-30T15:30:10.342Z,24.84
2023-04-30T15:32:58.994Z,24.48
2023-04-30T15:35:48.001Z,24.37
2023-04-30T15:38:36.792Z,24.48
2023-04-30T15:41:26.979Z,24.20
2023-04-30T15:44:15.635Z,23.89
2023-04-30T15:47:04.443Z,24.67
2023-04-30T15:49:55.720Z,24.66
2023-04-30T15:52:44.615Z,23.97
2023-04-30T15:55:33.343Z,24.28
2023-04-30T15:58:23.912Z,24.29
2023-04-30T16:01:14.818Z,24.71
2023-04-30T16:04:03.997Z,24.55
2023-04-30T16:06:53.492Z,25.49
2023-04-30T16:09:45.701Z,25.61
2023-04-30T16:12:35.109Z,24.92
2023-04-30T16:15:25.374Z,25.29
2023-04-30T16:18:15.848Z,24.76
2023-04-30T16:21:09.721Z,25.24
2023-04-30T16:23:58.626Z,25.33
2023-04-30T16:26:47.310Z,25.41
2023-04-30T16:29:35.912Z,25.25
2023-04-30T16:32:26.217Z,25.36
2023-04-30T16:35:15.473Z,25.79
2023-04-30T16:38:04.133Z,24.78
2023-04-30T16:40:52.902Z,25.07
2023-04-30T16:43:41.514Z,25.37
2023-04-30T16:46:30.480Z,25.04
2023-04-30T16:49:21.275Z,25.64
2023-04-30T16:52:10.209Z,25.73
2023-04-30T16:54:58.810Z,25.49
2023-04-30T16:57:47.593Z,25.14
2023-04-30T17:00:36.725Z,26.22
2023-04-30T17:03:26.060Z,25.57
2023-04-30T17:06:16.341Z,25.04
2023-04-30T17:09:05.289Z,25.25
2023-04-30T17:11:53.895Z,25.76
2023-04-30T17:14:42.532Z,27.20
2023-04-30T17:17:31.575Z,27.81
2023-04-30T17:20:20.529Z,28.04
2023-04-30T17:23:10.698Z,28.64
2023-04-30T17:25:59.413Z,28.94
2023-04-30T17:28:47.965Z,28.60
2023-04-30T17:31:37.150Z,29.23
2023-04-30T17:34:27.246Z,29.51
2023-04-30T17:37:16.021Z,29.53
2023-04-30T17:40:07.724Z,29.87
2023-04-30T17:42:56.474Z,29.84
2023-04-30T17:45:45.689Z,29.93
2023-04-30T17:48:34.425Z,29.87
2023-04-30T17:51:23.015Z,30.09
2023-04-30T17:54:11.674Z,30.19
2023-04-30T17:57:02.315Z,30.18
2023-04-30T17:59:50.992Z,30.12
2023-04-30T18:02:39.720Z,30.69
2023-04-30T18:05:28.481Z,30.47
2023-04-30T18:08:17.600Z,30.18
2023-04-30T18:11:07.241Z,30.21
2023-04-30T18:13:57.220Z,30.40
2023-04-30T18:16:46.059Z,30.14
2023-04-30T18:19:38.733Z,30.17
2023-04-30T18:22:27.462Z,30.66
2023-04-30T18:25:17.201Z,30.48
2023-04-30T18:28:07.550Z,30.49
2023-04-30T18:30:57.689Z,31.00
2023-04-30T18:33:46.226Z,31.01
2023-04-30T18:36:36.100Z,31.19
2023-04-30T18:39:24.699Z,31.33
2023-04-30T18:42:13.494Z,31.13
2023-04-30T18:45:02.261Z,31.21
2023-04-30T18:47:52.486Z,31.29
2023-04-30T18:50:43.145Z,31.31
2023-04-30T18:53:31.943Z,31.39
2023-04-30T18:56:22.051Z,31.62
2023-04-30T18:59:10.750Z,31.88
2023-04-30T19:01:59.488Z,32.02
2023-04-30T19:04:50.513Z,32.75
2023-04-30T19:07:39.717Z,32.94
2023-04-30T19:10:28.561Z,33.08
2023-04-30T19:13:17.543Z,33.74
2023-04-30T19:16:06.845Z,33.45
2023-04-30T19:18:55.583Z,33.73
2023-04-30T19:21:47.094Z,33.60
2023-04-30T19:24:36.030Z,33.78
2023-04-30T19:27:25.175Z,33.65
2023-04-30T19:30:15.455Z,33.92
2023-04-30T19:33:05.471Z,34.09
2023-04-30T19:35:55.075Z,33.86
2023-04-30T19:38:45.145Z,34.16
2023-04-30T19:41:33.934Z,34.21
2023-04-30T19:44:22.538Z,34.16
2023-04-30T19:47:11.217Z,34.20
2023-04-30T19:49:59.821Z,34.38
2023-04-30T19:52:48.607Z,34.42
2023-04-30T19:55:38.884Z,34.55
2023-04-30T19:58:28.070Z,34.55
2023-04-30T20:01:17.321Z,34.61
2023-04-30T20:04:06.651Z,34.43
2023-04-30T20:06:59.283Z,34.69
2023-04-30T20:12:34.775Z,34.57
2023-04-30T20:15:24.580Z,34.53
2023-04-30T20:18:13.213Z,34.71
2023-04-30T20:21:01.792Z,34.64
2023-04-30T20:23:50.504Z,34.15
2023-04-30T20:26:39.148Z,34.29
2023-04-30T20:29:29.428Z,34.49
2023-04-30T20:32:18.342Z,34.27
2023-04-30T20:35:08.336Z,34.07
2023-04-30T20:37:57.000Z,34.51
2023-04-30T20:40:47.206Z,34.29
2023-04-30T20:43:35.926Z,34.34
2023-04-30T20:46:28.270Z,34.46
2023-04-30T20:49:17.079Z,34.74
2023-04-30T20:52:05.970Z,34.81
2023-04-30T20:54:59.351Z,35.27
2023-04-30T20:57:48.078Z,35.40
2023-04-30T21:00:36.735Z,35.07
2023-04-30T21:03:27.105Z,35.26
2023-04-30T21:06:17.329Z,35.44
2023-04-30T21:09:06.261Z,35.53
2023-04-30T21:11:55.119Z,35.49
2023-04-30T21:14:43.889Z,35.35
2023-04-30T21:17:32.569Z,35.52
2023-04-30T21:20:22.854Z,35.32
2023-04-30T21:23:11.866Z,35.26
2023-04-30T21:26:01.389Z,35.44
2023-04-30T21:28:52.466Z,35.56
2023-04-30T21:31:41.131Z,35.65
2023-04-30T21:34:32.434Z,35.75
2023-04-30T21:37:22.807Z,35.84
2023-04-30T21:40:12.359Z,35.90
2023-04-30T21:43:01.296Z,35.87
2023-04-30T21:45:53.417Z,35.87
2023-04-30T21:48:45.725Z,35.88
2023-04-30T21:51:34.707Z,36.12
2023-04-30T21:54:25.253Z,35.72
2023-04-30T21:57:14.035Z,35.72
2023-04-30T22:00:04.480Z,35.96
2023-04-30T22:02:54.823Z,35.96
2023-04-30T22:05:44.138Z,35.64
2023-04-30T22:08:32.809Z,35.64
2023-04-30T22:11:22.799Z,35.82
2023-04-30T22:14:11.742Z,35.79
2023-04-30T22:17:00.806Z,35.71
2023-04-30T22:19:49.858Z,35.66
2023-04-30T22:22:38.648Z,35.46
2023-04-30T22:25:27.438Z,35.31
2023-04-30T22:28:19.183Z,35.54
2023-04-30T22:31:07.910Z,35.44
2023-04-30T22:33:56.592Z,35.58
2023-04-30T22:36:46.073Z,35.85
2023-04-30T22:39:34.758Z,35.61
2023-04-30T22:42:24.388Z,35.64
2023-04-30T22:45:14.572Z,35.93
2023-04-30T22:48:04.241Z,35.80
2023-04-30T22:50:53.062Z,35.68
2023-04-30T22:53:41.918Z,36.02
2023-04-30T22:56:30.665Z,35.89
2023-04-30T22:59:19.368Z,35.89
2023-04-30T23:02:09.325Z,35.70
2023-04-30T23:04:57.893Z,35.79
2023-04-30T23:07:48.653Z,35.82
2023-04-30T23:10:37.498Z,35.80
2023-04-30T23:13:26.357Z,35.77
2023-04-30T23:16:15.749Z,35.36
2023-04-30T23:19:05.815Z,35.72
2023-04-30T23:21:54.666Z,35.64
2023-04-30T23:24:43.491Z,35.53
2023-04-30T23:27:32.254Z,35.46
2023-04-30T23:30:21.800Z,35.66
2023-04-30T23:33:10.538Z,35.72
2023-04-30T23:36:00.687Z,35.88
2023-04-30T23:38:49.862Z,35.92
2023-04-30T23:41:38.507Z,36.19
2023-04-30T23:44:27.188Z,36.14
2023-04-30T23:47:15.812Z,36.18
2023-04-30T23:50:04.692Z,36.11
2023-04-30T23:52:55.161Z,35.94
2023-04-30T23:55:44.004Z,35.86
2023-04-30T23:58:32.774Z,35.85
